sensor_id;sensor_type;location;lat;lon;timestamp;pressure;altitude;pressure_sealevel;temperature;humidity
70781;BME280;59514;48.810;2.134;2022-10-16T00:01:30;99873.97;;;15.36;97.42
70781;BME280;59514;48.810;2.134;2022-10-16T00:03:57;99864.78;;;15.32;97.53
70781;BME280;59514;48.810;2.134;2022-10-16T00:06:23;99882.09;;;15.31;97.91
70781;BME280;59514;48.810;2.134;2022-10-16T00:08:50;99886.69;;;15.30;97.38
70781;BME280;59514;48.810;2.134;2022-10-16T00:11:19;99888.06;;;15.33;97.44
70781;BME280;59514;48.810;2.134;2022-10-16T00:13:45;99906.16;;;15.32;97.37
70781;BME280;59514;48.810;2.134;2022-10-16T00:16:12;99919.16;;;15.30;97.76
70781;BME280;59514;48.810;2.134;2022-10-16T00:18:38;99921.84;;;15.30;97.24
70781;BME280;59514;48.810;2.134;2022-10-16T00:21:12;99918.31;;;15.30;97.15
70781;BME280;59514;48.810;2.134;2022-10-16T00:23:38;99895.34;;;15.32;97.16
70781;BME280;59514;48.810;2.134;2022-10-16T00:26:07;99911.84;;;15.36;96.64
70781;BME280;59514;48.810;2.134;2022-10-16T00:28:34;99915.09;;;15.33;96.32
70781;BME280;59514;48.810;2.134;2022-10-16T00:31:04;99902.38;;;15.33;96.35
70781;BME280;59514;48.810;2.134;2022-10-16T00:33:29;99903.75;;;15.31;96.19
70781;BME280;59514;48.810;2.134;2022-10-16T00:35:57;99912.09;;;15.29;96.41
70781;BME280;59514;48.810;2.134;2022-10-16T00:38:23;99909.66;;;15.28;96.22
70781;BME280;59514;48.810;2.134;2022-10-16T00:40:48;99901.56;;;15.23;96.52
70781;BME280;59514;48.810;2.134;2022-10-16T00:43:37;99913.72;;;15.25;96.11
70781;BME280;59514;48.810;2.134;2022-10-16T00:46:09;99912.38;;;15.28;96.00
70781;BME280;59514;48.810;2.134;2022-10-16T00:48:36;99913.47;;;15.27;95.45
70781;BME280;59514;48.810;2.134;2022-10-16T00:51:01;99901.28;;;15.29;94.74
70781;BME280;59514;48.810;2.134;2022-10-16T00:53:27;99910.50;;;15.28;95.25
70781;BME280;59514;48.810;2.134;2022-10-16T00:55:53;99911.31;;;15.29;95.09
70781;BME280;59514;48.810;2.134;2022-10-16T00:58:19;99910.75;;;15.27;95.10
70781;BME280;59514;48.810;2.134;2022-10-16T01:00:45;99914.81;;;15.29;95.10
70781;BME280;59514;48.810;2.134;2022-10-16T01:03:28;99921.31;;;15.28;94.53
70781;BME280;59514;48.810;2.134;2022-10-16T01:09:21;99930.75;;;15.26;94.97
70781;BME280;59514;48.810;2.134;2022-10-16T01:15:06;99942.09;;;15.18;95.53
70781;BME280;59514;48.810;2.134;2022-10-16T01:20:30;99928.28;;;15.19;95.39
70781;BME280;59514;48.810;2.134;2022-10-16T01:28:49;99931.31;;;15.23;95.61
70781;BME280;59514;48.810;2.134;2022-10-16T01:31:19;99944.56;;;15.24;94.99
70781;BME280;59514;48.810;2.134;2022-10-16T01:33:49;99938.31;;;15.24;95.80
70781;BME280;59514;48.810;2.134;2022-10-16T01:36:21;99934.56;;;15.25;95.12
70781;BME280;59514;48.810;2.134;2022-10-16T01:38:51;99928.06;;;15.26;94.88
70781;BME280;59514;48.810;2.134;2022-10-16T01:41:33;99928.59;;;15.28;94.95
70781;BME280;59514;48.810;2.134;2022-10-16T01:44:28;99934.56;;;15.25;95.04
70781;BME280;59514;48.810;2.134;2022-10-16T01:46:55;99935.63;;;15.24;95.08
70781;BME280;59514;48.810;2.134;2022-10-16T01:49:23;99931.81;;;15.20;95.40
70781;BME280;59514;48.810;2.134;2022-10-16T01:51:54;99921.28;;;15.18;95.15
70781;BME280;59514;48.810;2.134;2022-10-16T01:54:22;99926.13;;;15.21;95.72
70781;BME280;59514;48.810;2.134;2022-10-16T01:56:49;99931.81;;;15.20;95.68
70781;BME280;59514;48.810;2.134;2022-10-16T01:59:18;99936.69;;;15.18;95.33
70781;BME280;59514;48.810;2.134;2022-10-16T02:01:48;99935.63;;;15.19;95.54
70781;BME280;59514;48.810;2.134;2022-10-16T02:04:28;99926.97;;;15.22;94.77
70781;BME280;59514;48.810;2.134;2022-10-16T02:06:54;99937.78;;;15.22;94.79
70781;BME280;59514;48.810;2.134;2022-10-16T02:09:20;99938.06;;;15.20;94.51
70781;BME280;59514;48.810;2.134;2022-10-16T02:11:46;99941.56;;;15.21;94.34
70781;BME280;59514;48.810;2.134;2022-10-16T02:14:11;99948.84;;;15.15;94.63
70781;BME280;59514;48.810;2.134;2022-10-16T02:16:38;99942.09;;;15.13;94.15
70781;BME280;59514;48.810;2.134;2022-10-16T02:19:04;99940.44;;;15.12;94.57
70781;BME280;59514;48.810;2.134;2022-10-16T02:21:43;99944.78;;;15.13;93.71
70781;BME280;59514;48.810;2.134;2022-10-16T02:24:17;99941.53;;;15.11;94.07
70781;BME280;59514;48.810;2.134;2022-10-16T02:29:46;99955.06;;;15.11;93.27
70781;BME280;59514;48.810;2.134;2022-10-16T02:32:17;99953.16;;;15.11;92.59
70781;BME280;59514;48.810;2.134;2022-10-16T02:34:46;99946.13;;;15.10;93.06
70781;BME280;59514;48.810;2.134;2022-10-16T02:37:13;99941.22;;;15.07;92.81
70781;BME280;59514;48.810;2.134;2022-10-16T02:39:40;99946.63;;;15.07;92.60
70781;BME280;59514;48.810;2.134;2022-10-16T02:42:13;99942.06;;;15.08;92.96
70781;BME280;59514;48.810;2.134;2022-10-16T02:44:38;99950.72;;;15.10;92.41
70781;BME280;59514;48.810;2.134;2022-10-16T02:47:04;99958.81;;;15.10;92.50
70781;BME280;59514;48.810;2.134;2022-10-16T02:49:29;99963.16;;;15.11;92.14
70781;BME280;59514;48.810;2.134;2022-10-16T02:51:55;99963.69;;;15.08;91.80
70781;BME280;59514;48.810;2.134;2022-10-16T02:54:20;99966.09;;;15.04;91.87
70781;BME280;59514;48.810;2.134;2022-10-16T02:56:45;99957.19;;;15.04;92.41
70781;BME280;59514;48.810;2.134;2022-10-16T02:59:10;99969.88;;;15.03;91.97
70781;BME280;59514;48.810;2.134;2022-10-16T03:01:36;99963.41;;;15.04;91.92
70781;BME280;59514;48.810;2.134;2022-10-16T03:04:01;99970.69;;;15.04;92.01
70781;BME280;59514;48.810;2.134;2022-10-16T03:06:27;99964.72;;;15.02;91.94
70781;BME280;59514;48.810;2.134;2022-10-16T03:08:52;99963.13;;;15.01;91.57
70781;BME280;59514;48.810;2.134;2022-10-16T03:11:17;99954.47;;;14.99;91.71
70781;BME280;59514;48.810;2.134;2022-10-16T03:13:42;99960.16;;;15.02;91.06
70781;BME280;59514;48.810;2.134;2022-10-16T03:16:08;99953.38;;;14.95;91.36
70781;BME280;59514;48.810;2.134;2022-10-16T03:18:33;99962.03;;;14.97;91.35
70781;BME280;59514;48.810;2.134;2022-10-16T03:20:58;99977.69;;;14.95;91.33
70781;BME280;59514;48.810;2.134;2022-10-16T03:23:24;99949.84;;;14.94;91.34
70781;BME280;59514;48.810;2.134;2022-10-16T03:25:49;99944.16;;;14.96;91.45
70781;BME280;59514;48.810;2.134;2022-10-16T03:28:14;99938.75;;;14.96;91.50
70781;BME280;59514;48.810;2.134;2022-10-16T03:30:40;99941.47;;;14.96;91.54
70781;BME280;59514;48.810;2.134;2022-10-16T03:33:05;99945.25;;;14.95;91.68
70781;BME280;59514;48.810;2.134;2022-10-16T03:35:31;99945.81;;;14.97;91.65
70781;BME280;59514;48.810;2.134;2022-10-16T03:37:56;99940.91;;;14.94;91.10
70781;BME280;59514;48.810;2.134;2022-10-16T03:40:22;99965.00;;;14.95;91.29
70781;BME280;59514;48.810;2.134;2022-10-16T03:42:47;99973.88;;;14.91;91.81
70781;BME280;59514;48.810;2.134;2022-10-16T03:45:13;99964.69;;;14.92;91.67
70781;BME280;59514;48.810;2.134;2022-10-16T03:47:38;99964.13;;;14.90;92.08
70781;BME280;59514;48.810;2.134;2022-10-16T03:50:04;99964.69;;;14.92;91.62
70781;BME280;59514;48.810;2.134;2022-10-16T03:52:30;99975.00;;;14.95;91.72
70781;BME280;59514;48.810;2.134;2022-10-16T03:54:55;99966.84;;;14.90;91.86
70781;BME280;59514;48.810;2.134;2022-10-16T03:57:21;99966.28;;;14.83;92.64
70781;BME280;59514;48.810;2.134;2022-10-16T03:59:46;99964.63;;;14.82;93.02
70781;BME280;59514;48.810;2.134;2022-10-16T04:02:11;99964.13;;;14.85;92.61
70781;BME280;59514;48.810;2.134;2022-10-16T04:04:37;99969.00;;;14.88;92.10
70781;BME280;59514;48.810;2.134;2022-10-16T04:07:02;99973.59;;;14.87;92.20
70781;BME280;59514;48.810;2.134;2022-10-16T04:09:27;99971.69;;;14.88;92.57
70781;BME280;59514;48.810;2.134;2022-10-16T04:11:53;99977.91;;;14.88;92.76
70781;BME280;59514;48.810;2.134;2022-10-16T04:14:18;99974.94;;;14.85;92.75
70781;BME280;59514;48.810;2.134;2022-10-16T04:16:43;99967.09;;;14.83;93.33
70781;BME280;59514;48.810;2.134;2022-10-16T04:19:10;99970.03;;;14.82;92.81
70781;BME280;59514;48.810;2.134;2022-10-16T04:21:35;99982.22;;;14.79;93.43
70781;BME280;59514;48.810;2.134;2022-10-16T04:24:01;99977.53;;;14.69;94.61
70781;BME280;59514;48.810;2.134;2022-10-16T04:26:26;99990.28;;;14.74;94.25
70781;BME280;59514;48.810;2.134;2022-10-16T04:28:51;99992.13;;;14.68;94.51
70781;BME280;59514;48.810;2.134;2022-10-16T04:31:17;99994.06;;;14.73;94.41
70781;BME280;59514;48.810;2.134;2022-10-16T04:33:43;100004.81;;;14.68;94.13
70781;BME280;59514;48.810;2.134;2022-10-16T04:36:09;100013.75;;;14.68;94.61
70781;BME280;59514;48.810;2.134;2022-10-16T04:38:34;100010.75;;;14.65;94.41
70781;BME280;59514;48.810;2.134;2022-10-16T04:41:00;100013.75;;;14.68;94.66
70781;BME280;59514;48.810;2.134;2022-10-16T04:43:25;100009.41;;;14.67;95.10
70781;BME280;59514;48.810;2.134;2022-10-16T04:45:51;100019.44;;;14.72;94.73
70781;BME280;59514;48.810;2.134;2022-10-16T04:48:17;100033.78;;;14.73;94.33
70781;BME280;59514;48.810;2.134;2022-10-16T04:50:42;100031.34;;;14.71;94.33
70781;BME280;59514;48.810;2.134;2022-10-16T04:53:07;100017.00;;;14.71;94.57
70781;BME280;59514;48.810;2.134;2022-10-16T04:55:33;100031.56;;;14.69;94.21
70781;BME280;59514;48.810;2.134;2022-10-16T04:57:59;100030.47;;;14.65;94.66
70781;BME280;59514;48.810;2.134;2022-10-16T05:00:24;100037.78;;;14.65;94.98
70781;BME280;59514;48.810;2.134;2022-10-16T05:02:50;100032.63;;;14.63;95.29
70781;BME280;59514;48.810;2.134;2022-10-16T05:05:16;100039.66;;;14.64;95.30
70781;BME280;59514;48.810;2.134;2022-10-16T05:07:41;100038.91;;;14.69;95.20
70781;BME280;59514;48.810;2.134;2022-10-16T05:10:07;100036.97;;;14.69;95.13
70781;BME280;59514;48.810;2.134;2022-10-16T05:12:33;100046.47;;;14.72;95.14
70781;BME280;59514;48.810;2.134;2022-10-16T05:14:58;100057.56;;;14.76;95.27
70781;BME280;59514;48.810;2.134;2022-10-16T05:17:24;100060.28;;;14.76;95.11
70781;BME280;59514;48.810;2.134;2022-10-16T05:19:50;100057.56;;;14.76;95.11
70781;BME280;59514;48.810;2.134;2022-10-16T05:22:15;100066.47;;;14.71;94.95
70781;BME280;59514;48.810;2.134;2022-10-16T05:24:41;100066.97;;;14.68;95.40
70781;BME280;59514;48.810;2.134;2022-10-16T05:27:06;100063.44;;;14.67;94.81
70781;BME280;59514;48.810;2.134;2022-10-16T05:29:31;100067.81;;;14.68;95.14
70781;BME280;59514;48.810;2.134;2022-10-16T05:31:57;100062.41;;;14.68;95.42
70781;BME280;59514;48.810;2.134;2022-10-16T05:34:22;100064.00;;;14.69;94.98
70781;BME280;59514;48.810;2.134;2022-10-16T05:36:47;100053.47;;;14.68;95.44
70781;BME280;59514;48.810;2.134;2022-10-16T05:39:14;100066.97;;;14.68;94.66
70781;BME280;59514;48.810;2.134;2022-10-16T05:41:40;100073.16;;;14.63;94.92
70781;BME280;59514;48.810;2.134;2022-10-16T05:44:05;100070.44;;;14.63;95.37
70781;BME280;59514;48.810;2.134;2022-10-16T05:46:32;100063.22;;;14.69;94.45
70781;BME280;59514;48.810;2.134;2022-10-16T05:48:57;100075.13;;;14.73;94.93
70781;BME280;59514;48.810;2.134;2022-10-16T05:51:23;100073.00;;;14.75;94.50
70781;BME280;59514;48.810;2.134;2022-10-16T05:53:48;100066.75;;;14.75;93.92
70781;BME280;59514;48.810;2.134;2022-10-16T05:56:14;100071.34;;;14.74;94.33
70781;BME280;59514;48.810;2.134;2022-10-16T05:58:39;100073.00;;;14.75;94.23
70781;BME280;59514;48.810;2.134;2022-10-16T06:01:14;100065.13;;;14.74;94.40
70781;BME280;59514;48.810;2.134;2022-10-16T06:03:40;100064.06;;;14.75;94.59
70781;BME280;59514;48.810;2.134;2022-10-16T06:06:17;100066.75;;;14.75;94.34
70781;BME280;59514;48.810;2.134;2022-10-16T06:08:43;100069.19;;;14.76;94.63
70781;BME280;59514;48.810;2.134;2022-10-16T06:11:13;100061.34;;;14.75;94.05
70781;BME280;59514;48.810;2.134;2022-10-16T06:13:39;100060.81;;;14.73;94.35
70781;BME280;59514;48.810;2.134;2022-10-16T06:16:08;100066.22;;;14.73;94.82
70781;BME280;59514;48.810;2.134;2022-10-16T06:18:33;100076.47;;;14.71;94.43
70781;BME280;59514;48.810;2.134;2022-10-16T06:20:59;100075.91;;;14.68;94.78
70781;BME280;59514;48.810;2.134;2022-10-16T06:23:25;100076.97;;;14.67;95.21
70781;BME280;59514;48.810;2.134;2022-10-16T06:25:50;100081.31;;;14.68;94.93
70781;BME280;59514;48.810;2.134;2022-10-16T06:28:16;100080.75;;;14.66;95.07
70781;BME280;59514;48.810;2.134;2022-10-16T06:30:42;100093.72;;;14.64;95.24
70781;BME280;59514;48.810;2.134;2022-10-16T06:33:11;100089.63;;;14.62;95.90
70781;BME280;59514;48.810;2.134;2022-10-16T06:35:36;100086.91;;;14.57;95.64
70781;BME280;59514;48.810;2.134;2022-10-16T06:38:02;100094.44;;;14.55;96.83
70781;BME280;59514;48.810;2.134;2022-10-16T06:40:27;100089.53;;;14.52;96.64
70781;BME280;59514;48.810;2.134;2022-10-16T06:42:54;100082.72;;;14.44;96.87
70781;BME280;59514;48.810;2.134;2022-10-16T06:45:20;100085.16;;;14.46;97.11
70781;BME280;59514;48.810;2.134;2022-10-16T06:47:45;100089.25;;;14.48;97.41
70781;BME280;59514;48.810;2.134;2022-10-16T06:50:10;100093.31;;;14.51;96.63
70781;BME280;59514;48.810;2.134;2022-10-16T06:52:36;100084.97;;;14.52;96.40
70781;BME280;59514;48.810;2.134;2022-10-16T06:55:01;100087.63;;;14.47;96.57
70781;BME280;59514;48.810;2.134;2022-10-16T06:57:28;100100.91;;;14.54;96.94
70781;BME280;59514;48.810;2.134;2022-10-16T06:59:53;100103.38;;;14.55;96.64
70781;BME280;59514;48.810;2.134;2022-10-16T07:02:19;100108.22;;;14.53;97.17
70781;BME280;59514;48.810;2.134;2022-10-16T07:04:44;100106.56;;;14.52;96.88
70781;BME280;59514;48.810;2.134;2022-10-16T07:07:10;100116.06;;;14.55;97.21
70781;BME280;59514;48.810;2.134;2022-10-16T07:09:35;100107.41;;;14.53;96.54
70781;BME280;59514;48.810;2.134;2022-10-16T07:12:01;100111.16;;;14.52;97.30
70781;BME280;59514;48.810;2.134;2022-10-16T07:14:26;100130.63;;;14.54;97.47
70781;BME280;59514;48.810;2.134;2022-10-16T07:16:51;100129.59;;;14.60;97.11
70781;BME280;59514;48.810;2.134;2022-10-16T07:19:17;100126.13;;;14.64;95.82
70781;BME280;59514;48.810;2.134;2022-10-16T07:21:43;100127.47;;;14.62;96.22
70781;BME280;59514;48.810;2.134;2022-10-16T07:24:15;100124.28;;;14.70;95.74
70781;BME280;59514;48.810;2.134;2022-10-16T07:26:42;100133.22;;;14.71;96.22
70781;BME280;59514;48.810;2.134;2022-10-16T07:29:16;100132.13;;;14.72;96.04
70781;BME280;59514;48.810;2.134;2022-10-16T07:31:42;100135.16;;;14.75;95.71
70781;BME280;59514;48.810;2.134;2022-10-16T07:34:07;100132.13;;;14.72;95.13
70781;BME280;59514;48.810;2.134;2022-10-16T07:36:33;100141.06;;;14.72;96.01
70781;BME280;59514;48.810;2.134;2022-10-16T07:38:58;100145.69;;;14.77;95.27
70781;BME280;59514;48.810;2.134;2022-10-16T07:41:24;100157.63;;;14.81;94.85
70781;BME280;59514;48.810;2.134;2022-10-16T07:43:53;100156.53;;;14.82;95.03
70781;BME280;59514;48.810;2.134;2022-10-16T07:46:21;100159.84;;;14.89;93.86
70781;BME280;59514;48.810;2.134;2022-10-16T07:48:47;100155.03;;;14.96;93.47
70781;BME280;59514;48.810;2.134;2022-10-16T07:51:19;100165.63;;;15.02;93.19
70781;BME280;59514;48.810;2.134;2022-10-16T07:53:45;100178.38;;;15.07;92.71
70781;BME280;59514;48.810;2.134;2022-10-16T07:56:11;100179.41;;;15.01;92.78
70781;BME280;59514;48.810;2.134;2022-10-16T07:58:37;100185.13;;;15.04;92.45
70781;BME280;59514;48.810;2.134;2022-10-16T08:01:05;100182.16;;;15.06;92.00
70781;BME280;59514;48.810;2.134;2022-10-16T08:03:31;100191.09;;;15.11;92.38
70781;BME280;59514;48.810;2.134;2022-10-16T08:05:57;100191.09;;;15.11;91.64
70781;BME280;59514;48.810;2.134;2022-10-16T08:08:23;100181.94;;;15.12;92.14
70781;BME280;59514;48.810;2.134;2022-10-16T08:10:49;100182.53;;;15.19;92.22
70781;BME280;59514;48.810;2.134;2022-10-16T08:13:14;100189.91;;;15.29;92.19
70781;BME280;59514;48.810;2.134;2022-10-16T08:15:44;100187.50;;;15.32;91.74
70781;BME280;59514;48.810;2.134;2022-10-16T08:18:11;100190.75;;;15.34;91.65
70781;BME280;59514;48.810;2.134;2022-10-16T08:20:37;100185.91;;;15.36;90.91
70781;BME280;59514;48.810;2.134;2022-10-16T08:23:03;100192.38;;;15.35;91.10
70781;BME280;59514;48.810;2.134;2022-10-16T08:25:29;100196.72;;;15.36;91.46
70781;BME280;59514;48.810;2.134;2022-10-16T08:27:54;100192.19;;;15.42;90.86
70781;BME280;59514;48.810;2.134;2022-10-16T08:30:22;100195.47;;;15.49;90.27
70781;BME280;59514;48.810;2.134;2022-10-16T08:32:47;100197.13;;;15.55;90.28
70781;BME280;59514;48.810;2.134;2022-10-16T08:35:14;100191.22;;;15.58;90.47
70781;BME280;59514;48.810;2.134;2022-10-16T08:37:40;100200.16;;;15.59;90.79
70781;BME280;59514;48.810;2.134;2022-10-16T08:40:11;100201.22;;;15.58;89.91
70781;BME280;59514;48.810;2.134;2022-10-16T08:42:51;100188.25;;;15.60;90.46
70781;BME280;59514;48.810;2.134;2022-10-16T08:45:34;100196.63;;;15.58;90.00
70781;BME280;59514;48.810;2.134;2022-10-16T08:50:38;100198.00;;;15.61;90.37
70781;BME280;59514;48.810;2.134;2022-10-16T08:53:05;100202.59;;;15.60;89.87
70781;BME280;59514;48.810;2.134;2022-10-16T08:55:33;100213.69;;;15.59;90.01
70781;BME280;59514;48.810;2.134;2022-10-16T08:58:04;100209.06;;;15.59;89.52
70781;BME280;59514;48.810;2.134;2022-10-16T09:00:35;100212.31;;;15.61;89.78
70781;BME280;59514;48.810;2.134;2022-10-16T09:03:16;100215.03;;;15.61;90.12
70781;BME280;59514;48.810;2.134;2022-10-16T09:10:58;100213.97;;;15.62;90.43
70781;BME280;59514;48.810;2.134;2022-10-16T09:13:37;100201.50;;;15.61;90.32
70781;BME280;59514;48.810;2.134;2022-10-16T09:16:29;100204.53;;;15.65;90.33
70781;BME280;59514;48.810;2.134;2022-10-16T09:19:15;100213.22;;;15.72;89.79
70781;BME280;59514;48.810;2.134;2022-10-16T09:21:45;100201.06;;;15.79;89.28
70781;BME280;59514;48.810;2.134;2022-10-16T09:24:18;100203.81;;;15.89;88.26
70781;BME280;59514;48.810;2.134;2022-10-16T09:26:44;100223.91;;;15.98;87.72
70781;BME280;59514;48.810;2.134;2022-10-16T09:29:12;100222.31;;;16.07;87.55
70781;BME280;59514;48.810;2.134;2022-10-16T09:31:38;100216.94;;;16.17;86.64
70781;BME280;59514;48.810;2.134;2022-10-16T09:34:05;100217.53;;;16.29;85.91
70781;BME280;59514;48.810;2.134;2022-10-16T09:36:39;100224.06;;;16.38;85.60
70781;BME280;59514;48.810;2.134;2022-10-16T09:39:08;100224.63;;;16.46;84.61
70781;BME280;59514;48.810;2.134;2022-10-16T09:41:35;100230.59;;;16.48;84.02
70781;BME280;59514;48.810;2.134;2022-10-16T09:44:05;100223.31;;;16.48;84.46
70781;BME280;59514;48.810;2.134;2022-10-16T09:46:35;100217.63;;;16.55;83.90
70781;BME280;59514;48.810;2.134;2022-10-16T09:49:16;100225.78;;;16.60;84.23
70781;BME280;59514;48.810;2.134;2022-10-16T09:51:44;100213.59;;;16.62;84.44
70781;BME280;59514;48.810;2.134;2022-10-16T09:54:20;100214.16;;;16.64;85.00
70781;BME280;59514;48.810;2.134;2022-10-16T09:56:47;100209.81;;;16.68;85.43
70781;BME280;59514;48.810;2.134;2022-10-16T09:59:22;100201.13;;;16.71;83.83
70781;BME280;59514;48.810;2.134;2022-10-16T10:01:51;100199.25;;;16.77;83.42
70781;BME280;59514;48.810;2.134;2022-10-16T10:04:18;100196.00;;;16.85;82.80
70781;BME280;59514;48.810;2.134;2022-10-16T10:06:55;100197.34;;;16.92;82.28
70781;BME280;59514;48.810;2.134;2022-10-16T10:09:22;100193.84;;;16.97;82.04
70781;BME280;59514;48.810;2.134;2022-10-16T10:14:24;100183.00;;;17.07;81.71
70781;BME280;59514;48.810;2.134;2022-10-16T10:16:52;100191.13;;;17.17;82.25
70781;BME280;59514;48.810;2.134;2022-10-16T10:19:22;100204.94;;;17.20;81.33
70781;BME280;59514;48.810;2.134;2022-10-16T10:21:50;100201.97;;;17.22;79.89
70781;BME280;59514;48.810;2.134;2022-10-16T10:24:18;100201.44;;;17.25;80.23
70781;BME280;59514;48.810;2.134;2022-10-16T10:29:32;100197.63;;;17.31;80.77
70781;BME280;59514;48.810;2.134;2022-10-16T10:34:52;100187.84;;;17.35;79.46
70781;BME280;59514;48.810;2.134;2022-10-16T10:37:42;100194.38;;;17.39;78.93
70781;BME280;59514;48.810;2.134;2022-10-16T10:45:48;100198.13;;;17.48;79.18
70781;BME280;59514;48.810;2.134;2022-10-16T10:48:23;100188.38;;;17.52;79.01
70781;BME280;59514;48.810;2.134;2022-10-16T10:50:58;100179.13;;;17.58;79.59
70781;BME280;59514;48.810;2.134;2022-10-16T10:56:50;100169.06;;;17.69;78.61
70781;BME280;59514;48.810;2.134;2022-10-16T10:59:43;100167.41;;;17.78;77.40
70781;BME280;59514;48.810;2.134;2022-10-16T11:02:37;100174.97;;;17.86;76.98
70781;BME280;59514;48.810;2.134;2022-10-16T11:07:50;100169.84;;;17.89;77.20
70781;BME280;59514;48.810;2.134;2022-10-16T11:10:22;100164.94;;;17.86;77.16
70781;BME280;59514;48.810;2.134;2022-10-16T11:12:52;100162.25;;;17.81;77.95
70781;BME280;59514;48.810;2.134;2022-10-16T11:15:31;100161.69;;;17.89;77.79
70781;BME280;59514;48.810;2.134;2022-10-16T11:18:13;100160.03;;;17.93;78.39
70781;BME280;59514;48.810;2.134;2022-10-16T11:20:48;100158.41;;;17.92;78.20
70781;BME280;59514;48.810;2.134;2022-10-16T11:23:23;100162.19;;;17.96;77.76
70781;BME280;59514;48.810;2.134;2022-10-16T11:25:56;100166.53;;;17.92;78.05
70781;BME280;59514;48.810;2.134;2022-10-16T11:28:37;100166.56;;;17.87;78.63
70781;BME280;59514;48.810;2.134;2022-10-16T11:31:32;100161.16;;;17.87;78.72
70781;BME280;59514;48.810;2.134;2022-10-16T11:34:15;100156.25;;;17.84;79.19
70781;BME280;59514;48.810;2.134;2022-10-16T11:36:56;100150.81;;;17.84;80.22
70781;BME280;59514;48.810;2.134;2022-10-16T11:39:31;100150.31;;;17.77;81.09
70781;BME280;59514;48.810;2.134;2022-10-16T11:42:09;100155.72;;;17.82;81.18
70781;BME280;59514;48.810;2.134;2022-10-16T11:47:42;100140.56;;;17.71;81.41
70781;BME280;59514;48.810;2.134;2022-10-16T11:55:16;100122.09;;;17.73;81.20
70781;BME280;59514;48.810;2.134;2022-10-16T11:57:47;100122.34;;;17.72;81.61
70781;BME280;59514;48.810;2.134;2022-10-16T12:05:23;100125.56;;;17.89;81.16
70781;BME280;59514;48.810;2.134;2022-10-16T12:08:19;100113.31;;;17.91;80.43
70781;BME280;59514;48.810;2.134;2022-10-16T12:10:46;100114.94;;;17.92;80.77
70781;BME280;59514;48.810;2.134;2022-10-16T12:13:40;100117.06;;;18.00;80.94
70781;BME280;59514;48.810;2.134;2022-10-16T12:18:43;100120.81;;;18.09;81.25
70781;BME280;59514;48.810;2.134;2022-10-16T12:21:10;100130.59;;;18.05;81.26
70781;BME280;59514;48.810;2.134;2022-10-16T12:23:58;100121.31;;;18.17;81.30
70781;BME280;59514;48.810;2.134;2022-10-16T12:26:27;100117.56;;;18.07;81.27
70781;BME280;59514;48.810;2.134;2022-10-16T12:28:54;100119.75;;;18.05;81.63
70781;BME280;59514;48.810;2.134;2022-10-16T12:31:20;100120.84;;;18.04;81.39
70781;BME280;59514;48.810;2.134;2022-10-16T12:33:59;100118.94;;;18.05;82.32
70781;BME280;59514;48.810;2.134;2022-10-16T12:36:29;100115.06;;;18.16;82.20
70781;BME280;59514;48.810;2.134;2022-10-16T12:38:55;100106.09;;;18.21;81.82
70781;BME280;59514;48.810;2.134;2022-10-16T12:41:38;100096.81;;;18.22;81.50
70781;BME280;59514;48.810;2.134;2022-10-16T12:44:05;100092.22;;;18.22;81.71
70781;BME280;59514;48.810;2.134;2022-10-16T12:46:46;100084.34;;;18.21;81.73
70781;BME280;59514;48.810;2.134;2022-10-16T12:51:37;100094.09;;;18.27;81.90
70781;BME280;59514;48.810;2.134;2022-10-16T12:54:14;100090.25;;;18.28;81.98
70781;BME280;59514;48.810;2.134;2022-10-16T12:56:46;100090.78;;;18.30;81.57
70781;BME280;59514;48.810;2.134;2022-10-16T12:59:19;100088.06;;;18.30;81.79
70781;BME280;59514;48.810;2.134;2022-10-16T13:10:21;100087.47;;;19.05;79.47
70781;BME280;59514;48.810;2.134;2022-10-16T13:13:16;100079.72;;;19.69;77.26
70781;BME280;59514;48.810;2.134;2022-10-16T13:21:43;100065.00;;;20.64;73.48
70781;BME280;59514;48.810;2.134;2022-10-16T13:26:55;100072.66;;;20.94;71.89
70781;BME280;59514;48.810;2.134;2022-10-16T13:29:23;100064.47;;;20.62;73.41
70781;BME280;59514;48.810;2.134;2022-10-16T13:31:49;100056.53;;;20.46;74.02
70781;BME280;59514;48.810;2.134;2022-10-16T13:34:17;100057.25;;;20.20;74.98
70781;BME280;59514;48.810;2.134;2022-10-16T13:36:46;100060.88;;;19.92;76.02
70781;BME280;59514;48.810;2.134;2022-10-16T13:39:25;100064.41;;;19.73;77.21
70781;BME280;59514;48.810;2.134;2022-10-16T13:44:26;100070.06;;;19.58;78.67
70781;BME280;59514;48.810;2.134;2022-10-16T13:47:00;100065.25;;;19.50;79.14
70781;BME280;59514;48.810;2.134;2022-10-16T13:49:26;100080.06;;;19.39;79.75
70781;BME280;59514;48.810;2.134;2022-10-16T13:51:58;100068.69;;;19.32;80.36
70781;BME280;59514;48.810;2.134;2022-10-16T13:54:25;100071.44;;;19.27;80.68
70781;BME280;59514;48.810;2.134;2022-10-16T13:56:51;100073.13;;;19.23;80.72
70781;BME280;59514;48.810;2.134;2022-10-16T13:59:25;100068.56;;;19.19;81.04
70781;BME280;59514;48.810;2.134;2022-10-16T14:01:53;100070.78;;;19.17;81.67
70781;BME280;59514;48.810;2.134;2022-10-16T14:04:21;100067.16;;;19.21;81.80
70781;BME280;59514;48.810;2.134;2022-10-16T14:06:49;100067.69;;;19.23;81.91
70781;BME280;59514;48.810;2.134;2022-10-16T14:09:23;100070.72;;;19.22;81.88
70781;BME280;59514;48.810;2.134;2022-10-16T14:11:51;100067.47;;;19.20;81.77
70781;BME280;59514;48.810;2.134;2022-10-16T14:14:19;100071.34;;;19.14;82.32
70781;BME280;59514;48.810;2.134;2022-10-16T14:16:45;100062.41;;;19.08;82.62
70781;BME280;59514;48.810;2.134;2022-10-16T14:19:22;100071.66;;;19.07;83.27
70781;BME280;59514;48.810;2.134;2022-10-16T14:21:50;100068.94;;;19.07;82.31
70781;BME280;59514;48.810;2.134;2022-10-16T14:24:31;100068.31;;;19.15;82.14
70781;BME280;59514;48.810;2.134;2022-10-16T14:26:57;100060.94;;;19.21;82.41